עמוד ראשי
METAR-TAF:

METAR-TAF

שדות תעופה :

נמל התעופה הבינלאומי של ע'רדקה

הורגאדה, מצרים

קו רוחב: 27-09N, קו אורך: 033-43E, גובה: 16מטר

תצפית מזג אוויר נוכחית

הדו"ח נערך לפני 1 שעות ו 18דקות, בשעה 20:00 UTC
רוח 8קשר מכיוון צפון/צפון-מערב
טמפרטורת 32 צלסיוס
לחות 38%
לחץ 1002 hPa
ראות 10 קילומטר או יותר
ללא עננים שבסיסם נמוך מ 5000 רגל או קומולונימבוס

METAR: HEGN 252000Z 34008KT CAVOK 32/16 Q1002 NOSIG

זמן: 23:18 (21:18 UTC)

תחזית

הדו"ח נערך לפני 4 שעות ו 18דקות, בשעה 17:00 UTC
תחזית בתוקף מ 25 ב 18 UTC עד 26 ב 24 UTC
רוח 14קשר מכיוון צפון-מערב
ראות 10 קילומטר או יותר
ללא עננים שבסיסם נמוך מ 5000 רגל או קומולונימבוס

TAF: HEGN 251700Z 2518/2624 31014KT CAVOK

תצפיות ותחזיות מזג אוויר לגבי יותר מ- 4,000 שדות תעופה ברחבי העולם. דוחות METAR ו- TAF.

התחנות הזמינות מסומנות בנקודות צהובות ואדומות על גבי המפה.

העבר את העכבר לנקודה הצבעונית על מנת לראות את שם התחנה.

לאחר מכן, לחץ כדי לראות את תוכן ואת תחזיות מזג האוויר.

כדי לשנות את המפה: לחץ על הכפתורים הירוקים עם הפלוס השחור כדי להתקרב; על הכפתור הירוק עם המקף כדי להתרחק; או בחיצים הירוקים למפות סמוכות.


METAR-TAF: